Time;durP1;ratioP1;P1;durP2;ratioP2;P2;SDS_P1;SDS_P2;PMS_P1;PMS_P2;Temp;Humidity;BMP_temperature;BMP_pressure;BME280_temperature;BME280_humidity;BME280_pressure;Samples;Min_cycle;Max_cycle;Signal;HPM_P1;HPM_P2
2023/04/02 00:02:21;;;;;;;9.45;4.38;;;5.30;99.90;;;;;;5054999;28;20475;-71
2023/04/02 00:05:15;;;;;;;6.43;4.07;;;5.30;99.90;;;;;;5055006;28;20559;-71
2023/04/02 00:07:43;;;;;;;6.35;4.05;;;5.30;99.90;;;;;;5054920;28;20052;-70
2023/04/02 00:10:30;;;;;;;8.88;4.50;;;5.20;99.90;;;;;;5054945;28;20052;-71
2023/04/02 00:13:08;;;;;;;9.32;3.90;;;5.30;99.90;;;;;;5054891;28;20047;-70
2023/04/02 00:15:34;;;;;;;7.15;3.88;;;5.20;99.90;;;;;;5054718;28;20036;-70
2023/04/02 00:18:01;;;;;;;7.30;3.88;;;5.20;99.90;;;;;;5055971;28;20370;-71
2023/04/02 00:20:27;;;;;;;6.97;4.22;;;5.20;99.90;;;;;;5054831;28;20519;-71
2023/04/02 00:22:55;;;;;;;7.82;4.18;;;5.20;99.90;;;;;;5054885;28;20044;-71
2023/04/02 00:25:20;;;;;;;6.70;4.50;;;5.10;99.90;;;;;;5054803;28;20417;-71
2023/04/02 00:27:46;;;;;;;8.18;4.40;;;5.10;99.90;;;;;;5056259;28;20041;-71
2023/04/02 00:30:12;;;;;;;6.75;4.30;;;5.10;99.90;;;;;;5058774;28;20117;-71
2023/04/02 00:32:38;;;;;;;8.00;4.28;;;5.10;99.90;;;;;;5058705;28;20040;-71
2023/04/02 00:35:16;;;;;;;7.82;4.25;;;5.10;99.90;;;;;;5058741;28;20040;-71
2023/04/02 00:37:43;;;;;;;7.13;4.13;;;5.10;99.90;;;;;;5058618;28;20540;-71
2023/04/02 00:40:19;;;;;;;10.18;4.03;;;5.10;99.90;;;;;;5042129;28;20075;-71
2023/04/02 00:42:46;;;;;;;5.63;4.00;;;5.10;99.90;;;;;;5058899;28;20170;-70
2023/04/02 00:45:35;;;;;;;6.57;3.80;;;5.00;99.90;;;;;;5058565;28;20121;-70
2023/04/02 00:48:30;;;;;;;9.25;3.97;;;5.10;99.90;;;;;;5058563;28;20040;-71
2023/04/02 00:51:06;;;;;;;7.28;3.53;;;5.00;99.90;;;;;;5058409;28;20389;-71
2023/04/02 00:53:33;;;;;;;7.90;3.63;;;5.00;99.90;;;;;;5058308;28;20408;-70
2023/04/02 00:56:01;;;;;;;5.95;3.35;;;4.90;99.90;;;;;;5058325;28;20040;-70
2023/04/02 00:58:30;;;;;;;7.20;3.10;;;4.90;99.90;;;;;;5058287;28;20040;-71
2023/04/02 01:00:57;;;;;;;7.65;3.33;;;4.90;99.90;;;;;;5058475;28;20032;-71
2023/04/02 01:03:33;;;;;;;7.22;2.85;;;4.80;99.90;;;;;;5058229;28;20059;-70
2023/04/02 01:06:09;;;;;;;8.55;3.58;;;4.80;99.90;;;;;;5058057;28;20412;-70
2023/04/02 01:08:37;;;;;;;8.95;3.33;;;4.80;99.90;;;;;;5041795;28;20045;-70
2023/04/02 01:11:23;;;;;;;7.00;3.35;;;4.70;99.90;;;;;;5058204;28;20548;-70
2023/04/02 01:14:20;;;;;;;5.32;2.97;;;4.70;99.90;;;;;;5057934;28;20090;-70
2023/04/02 01:17:07;;;;;;;6.03;3.33;;;4.70;99.90;;;;;;5041076;28;20089;-70
2023/04/02 01:20:15;;;;;;;7.18;3.28;;;4.60;99.90;;;;;;5057971;28;20043;-70
2023/04/02 01:22:48;;;;;;;7.88;3.40;;;4.60;99.90;;;;;;5004601;28;20049;-71
2023/04/02 01:25:19;;;;;;;8.70;3.28;;;4.60;99.90;;;;;;5057808;28;20508;-70
2023/04/02 01:27:55;;;;;;;10.05;3.50;;;4.50;99.90;;;;;;5057741;28;20119;-71
2023/04/02 01:30:21;;;;;;;8.73;3.70;;;4.50;99.90;;;;;;5057771;28;20052;-71
2023/04/02 01:32:49;;;;;;;7.40;3.22;;;4.30;99.90;;;;;;5057566;28;20055;-70
2023/04/02 01:35:15;;;;;;;5.35;3.10;;;4.20;99.90;;;;;;5040990;28;20498;-70
2023/04/02 01:37:55;;;;;;;8.90;3.15;;;4.20;99.90;;;;;;5057523;28;20116;-70
2023/04/02 01:40:59;;;;;;;6.32;2.65;;;4.10;99.90;;;;;;5056804;28;20040;-70
2023/04/02 01:43:35;;;;;;;7.38;3.00;;;4.00;99.90;;;;;;5057434;28;20040;-70
2023/04/02 01:46:23;;;;;;;9.20;3.28;;;3.90;99.90;;;;;;5057981;28;20077;-70
2023/04/02 01:48:49;;;;;;;6.53;3.03;;;3.90;99.90;;;;;;5057699;28;20114;-70
2023/04/02 01:51:31;;;;;;;5.38;2.85;;;3.80;99.90;;;;;;5040696;28;20131;-70
2023/04/02 01:53:59;;;;;;;6.60;3.00;;;3.80;99.90;;;;;;5057144;28;20090;-70
2023/04/02 01:56:27;;;;;;;6.68;2.67;;;3.80;99.90;;;;;;5040798;28;20037;-70
2023/04/02 01:58:53;;;;;;;6.15;3.13;;;3.70;99.90;;;;;;5057168;28;20071;-70
2023/04/02 02:01:23;;;;;;;8.10;2.88;;;3.60;99.90;;;;;;5040440;28;20079;-70
2023/04/02 02:03:50;;;;;;;7.25;2.80;;;3.60;99.90;;;;;;5057109;28;20036;-70
2023/04/02 02:06:18;;;;;;;8.98;2.60;;;3.50;99.90;;;;;;5057163;28;20048;-70
2023/04/02 02:09:06;;;;;;;8.95;3.05;;;3.50;99.90;;;;;;5056994;28;20500;-70
2023/04/02 02:11:34;;;;;;;10.25;3.28;;;3.40;99.90;;;;;;5056935;28;20043;-70
2023/04/02 02:14:10;;;;;;;7.32;3.20;;;3.40;99.90;;;;;;5056746;28;20045;-70
2023/04/02 02:16:40;;;;;;;10.30;3.10;;;3.40;99.90;;;;;;5056658;28;20142;-70
2023/04/02 02:19:31;;;;;;;10.27;3.78;;;3.30;99.90;;;;;;5056785;28;20171;-70
2023/04/02 02:22:08;;;;;;;7.97;3.10;;;3.30;99.90;;;;;;5056954;28;20373;-70
2023/04/02 02:24:35;;;;;;;7.95;3.22;;;3.20;99.90;;;;;;5056711;28;20044;-70
2023/04/02 02:27:23;;;;;;;9.20;3.40;;;3.20;99.90;;;;;;5056518;28;20086;-70
2023/04/02 02:29:55;;;;;;;7.22;3.13;;;3.10;99.90;;;;;;5040687;28;20044;-70
2023/04/02 02:32:26;;;;;;;8.55;2.92;;;3.10;99.90;;;;;;5056574;28;20037;-70
2023/04/02 02:35:00;;;;;;;6.05;2.90;;;3.10;99.90;;;;;;5056586;28;20040;-70
2023/04/02 02:37:36;;;;;;;5.90;3.03;;;3.10;99.90;;;;;;5057513;28;20033;-70
2023/04/02 02:40:07;;;;;;;7.65;2.90;;;3.00;99.90;;;;;;5056452;28;20029;-70
2023/04/02 02:42:40;;;;;;;5.78;2.58;;;3.00;99.90;;;;;;5056409;28;20085;-70
2023/04/02 02:45:12;;;;;;;5.95;2.47;;;2.90;99.90;;;;;;5040044;28;20052;-70
2023/04/02 02:47:41;;;;;;;5.55;2.60;;;2.90;99.90;;;;;;5039586;28;20047;-70
2023/04/02 02:50:12;;;;;;;8.65;2.72;;;2.90;99.90;;;;;;5056029;28;20124;-70
2023/04/02 02:52:43;;;;;;;6.95;2.50;;;2.80;99.90;;;;;;5055394;28;20052;-71
2023/04/02 02:55:16;;;;;;;10.18;2.60;;;2.80;99.90;;;;;;5056332;28;20047;-70
2023/04/02 02:58:21;;;;;;;7.63;2.60;;;2.80;99.90;;;;;;5055961;28;20420;-70
2023/04/02 03:00:48;;;;;;;8.10;3.05;;;2.80;99.90;;;;;;5018268;28;20107;-70
2023/04/02 03:03:20;;;;;;;7.22;2.30;;;2.60;99.90;;;;;;5055905;28;20036;-70
2023/04/02 03:05:53;;;;;;;5.63;2.10;;;2.60;99.90;;;;;;5055922;28;20040;-70
2023/04/02 03:08:27;;;;;;;7.13;2.40;;;2.60;99.90;;;;;;5056218;28;20044;-71
2023/04/02 03:11:21;;;;;;;7.80;2.15;;;2.60;99.90;;;;;;5055830;28;20048;-71
2023/04/02 03:13:50;;;;;;;8.18;2.47;;;2.60;99.90;;;;;;5042540;28;20110;-70
2023/04/02 03:16:21;;;;;;;5.72;2.03;;;2.50;99.90;;;;;;5055799;28;20150;-70
2023/04/02 03:18:57;;;;;;;6.65;2.05;;;2.50;99.90;;;;;;5055719;28;20044;-70
2023/04/02 03:21:30;;;;;;;8.00;2.30;;;2.50;99.90;;;;;;5039015;28;20562;-70
2023/04/02 03:24:18;;;;;;;8.57;2.83;;;2.60;99.90;;;;;;5055552;28;20443;-70
2023/04/02 03:26:54;;;;;;;7.43;2.10;;;2.60;99.90;;;;;;5039149;28;20036;-70
2023/04/02 03:29:26;;;;;;;8.25;1.90;;;2.50;99.90;;;;;;5055439;28;20044;-70
2023/04/02 03:32:14;;;;;;;6.70;2.42;;;2.50;99.90;;;;;;5055382;28;20036;-71
2023/04/02 03:34:46;;;;;;;11.57;2.40;;;2.50;99.90;;;;;;5055363;28;20037;-70
2023/04/02 03:37:18;;;;;;;6.72;2.10;;;2.50;99.90;;;;;;5055340;28;20119;-70
2023/04/02 03:39:53;;;;;;;5.40;1.85;;;2.50;99.90;;;;;;5055410;28;20059;-70
2023/04/02 03:42:37;;;;;;;7.18;2.35;;;2.50;99.90;;;;;;5055562;28;20049;-70
2023/04/02 03:45:13;;;;;;;7.30;1.98;;;2.50;99.90;;;;;;5055348;28;20472;-70
2023/04/02 03:47:45;;;;;;;5.13;2.33;;;2.50;99.90;;;;;;5055212;28;20044;-70
2023/04/02 03:50:41;;;;;;;6.03;2.17;;;2.50;99.90;;;;;;5055144;28;20474;-70
2023/04/02 03:53:08;;;;;;;5.97;2.13;;;2.50;99.90;;;;;;5055111;28;20043;-70
2023/04/02 03:55:39;;;;;;;6.78;2.53;;;2.50;99.90;;;;;;5055243;28;20106;-70
2023/04/02 03:58:17;;;;;;;6.38;2.10;;;2.50;99.90;;;;;;5055032;28;20525;-70
2023/04/02 04:01:11;;;;;;;10.07;1.90;;;2.50;99.90;;;;;;5038709;28;20037;-70
2023/04/02 04:03:47;;;;;;;8.27;2.05;;;2.50;99.90;;;;;;5038441;28;20086;-70
2023/04/02 04:06:23;;;;;;;8.50;2.40;;;2.50;99.90;;;;;;5055072;28;20052;-70
2023/04/02 04:09:14;;;;;;;7.38;1.90;;;2.50;99.90;;;;;;5054988;28;20040;-70
2023/04/02 04:11:48;;;;;;;9.20;1.70;;;2.50;99.90;;;;;;5055218;28;20048;-70
2023/04/02 04:14:31;;;;;;;6.75;2.10;;;2.50;99.90;;;;;;5055266;28;20041;-70
2023/04/02 04:17:12;;;;;;;6.53;1.97;;;2.50;99.90;;;;;;5054779;28;20086;-70
2023/04/02 04:19:57;;;;;;;6.70;1.77;;;2.40;99.90;;;;;;5054967;28;20076;-70
2023/04/02 04:22:32;;;;;;;5.88;1.80;;;2.50;99.90;;;;;;5055474;28;20438;-70
2023/04/02 04:25:19;;;;;;;6.43;1.70;;;2.40;99.90;;;;;;5054973;28;20048;-70
2023/04/02 04:28:04;;;;;;;7.20;1.52;;;2.40;99.90;;;;;;5055052;28;20045;-70
2023/04/02 04:30:52;;;;;;;9.73;2.35;;;2.30;99.90;;;;;;5055037;28;20104;-69
2023/04/02 04:33:24;;;;;;;4.53;1.38;;;2.30;99.90;;;;;;5054748;28;20040;-70
2023/04/02 04:36:01;;;;;;;7.93;1.95;;;2.30;99.90;;;;;;5054932;28;20037;-70
2023/04/02 04:38:38;;;;;;;7.03;1.67;;;2.20;99.90;;;;;;5054713;28;20412;-70
2023/04/02 04:41:19;;;;;;;6.22;1.30;;;2.20;99.90;;;;;;5038169;28;20052;-70
2023/04/02 04:43:55;;;;;;;5.22;1.52;;;2.20;99.90;;;;;;5038316;28;20558;-70
2023/04/02 04:46:32;;;;;;;5.03;1.60;;;2.20;99.90;;;;;;5054600;28;20411;-70
2023/04/02 04:49:07;;;;;;;5.90;1.40;;;2.10;99.90;;;;;;5054682;28;20102;-70
2023/04/02 04:51:40;;;;;;;4.75;1.20;;;2.00;99.90;;;;;;5054571;28;20132;-70
2023/04/02 04:54:13;;;;;;;4.60;1.48;;;2.00;99.90;;;;;;5054634;28;20051;-70
2023/04/02 04:56:39;;;;;;;;;;;2.00;99.90;;;;;;5054930;28;20074;-70
2023/04/02 04:59:21;;;;;;;5.00;1.52;;;1.90;99.90;;;;;;5054740;28;19916;-70
2023/04/02 05:02:05;;;;;;;5.43;1.52;;;1.90;99.90;;;;;;5054539;28;20037;-70
2023/04/02 05:04:42;;;;;;;5.20;1.00;;;1.90;99.90;;;;;;5037883;28;20037;-70
2023/04/02 05:07:41;;;;;;;6.28;1.67;;;1.90;99.90;;;;;;5054460;28;20068;-70
2023/04/02 05:10:31;;;;;;;6.93;1.95;;;2.00;99.90;;;;;;5054516;28;20037;-71
2023/04/02 05:13:19;;;;;;;10.80;1.48;;;2.00;99.90;;;;;;5054363;28;20082;-70
2023/04/02 05:16:10;;;;;;;5.55;1.45;;;1.90;99.90;;;;;;5056447;28;20090;-70
2023/04/02 05:18:56;;;;;;;8.60;2.45;;;2.00;99.90;;;;;;5058258;28;20044;-70
2023/04/02 05:21:40;;;;;;;7.40;1.38;;;2.00;99.90;;;;;;5041323;28;20408;-70
2023/04/02 05:24:39;;;;;;;6.50;1.80;;;1.90;99.90;;;;;;5057876;28;20463;-70
2023/04/02 05:27:35;;;;;;;9.70;1.55;;;2.00;99.90;;;;;;5057768;28;20048;-70
2023/04/02 05:30:21;;;;;;;7.15;1.70;;;1.90;99.90;;;;;;5050756;28;20056;-70
2023/04/02 05:32:56;;;;;;;4.30;1.58;;;1.90;99.90;;;;;;5057808;28;20037;-70
2023/04/02 05:35:28;;;;;;;3.75;1.23;;;1.90;99.90;;;;;;5057937;28;20032;-70
2023/04/02 05:37:54;;;;;;;5.47;1.23;;;1.90;99.90;;;;;;5057845;28;20047;-70
2023/04/02 05:40:30;;;;;;;6.93;1.50;;;1.80;99.90;;;;;;5057581;28;20279;-71
2023/04/02 05:42:58;;;;;;;4.57;1.50;;;1.90;99.90;;;;;;5040948;28;20509;-71
2023/04/02 05:45:32;;;;;;;6.18;1.30;;;1.90;99.90;;;;;;5057504;28;20385;-70
2023/04/02 05:48:02;;;;;;;3.28;1.10;;;1.90;99.90;;;;;;5057395;28;20076;-70
2023/04/02 05:50:36;;;;;;;7.22;1.80;;;1.80;99.90;;;;;;5057651;28;20051;-70
2023/04/02 05:53:26;;;;;;;8.10;1.67;;;1.90;99.90;;;;;;5057262;28;20052;-70
2023/04/02 05:56:14;;;;;;;7.80;1.90;;;1.90;99.90;;;;;;5040833;28;20056;-70
2023/04/02 05:58:54;;;;;;;7.68;1.45;;;1.90;99.90;;;;;;5057243;28;20045;-70
2023/04/02 06:01:29;;;;;;;8.82;1.50;;;1.90;99.90;;;;;;5057145;28;20071;-71
2023/04/02 06:04:01;;;;;;;5.47;1.30;;;1.90;99.90;;;;;;5057124;28;20178;-71
2023/04/02 06:06:42;;;;;;;8.25;1.52;;;2.00;99.90;;;;;;5040401;28;20051;-70
2023/04/02 06:09:26;;;;;;;6.18;1.60;;;2.00;99.90;;;;;;5057022;28;20044;-70
2023/04/02 06:12:15;;;;;;;7.07;1.40;;;2.00;99.90;;;;;;5056878;28;20048;-70
2023/04/02 06:14:41;;;;;;;8.07;2.05;;;2.10;99.90;;;;;;5074914;28;20512;-70
2023/04/02 06:17:11;;;;;;;7.45;1.50;;;2.10;99.90;;;;;;5056742;28;20084;-70
2023/04/02 06:19:38;;;;;;;6.30;1.40;;;2.20;99.90;;;;;;5057197;28;20032;-71
2023/04/02 06:22:36;;;;;;;6.07;1.48;;;2.20;99.90;;;;;;5056749;28;20051;-71
2023/04/02 06:25:10;;;;;;;8.40;1.52;;;2.30;99.90;;;;;;5056519;28;20036;-70
2023/04/02 06:27:38;;;;;;;6.97;1.35;;;2.30;99.90;;;;;;5056610;28;20047;-70
2023/04/02 06:30:08;;;;;;;4.72;1.20;;;2.30;99.90;;;;;;5056897;28;20489;-70
2023/04/02 06:32:34;;;;;;;4.85;1.08;;;2.30;99.90;;;;;;5056484;28;20119;-70
2023/04/02 06:35:00;;;;;;;3.50;1.10;;;2.40;99.90;;;;;;5039844;28;20075;-71
2023/04/02 06:37:31;;;;;;;6.20;1.30;;;2.40;99.90;;;;;;5056465;28;20067;-71
2023/04/02 06:39:59;;;;;;;7.43;1.70;;;2.40;99.90;;;;;;5056731;28;20040;-70
2023/04/02 06:42:36;;;;;;;6.28;1.50;;;2.50;99.90;;;;;;5056368;28;20037;-70
2023/04/02 06:45:02;;;;;;;8.43;1.50;;;2.60;99.90;;;;;;5056371;28;20097;-70
2023/04/02 06:47:41;;;;;;;9.10;1.33;;;2.60;99.90;;;;;;5056695;28;20081;-70
2023/04/02 06:50:11;;;;;;;7.03;1.48;;;2.70;99.90;;;;;;5056234;28;20485;-71
2023/04/02 06:52:48;;;;;;;5.38;1.27;;;2.70;99.90;;;;;;5056108;28;20045;-70
2023/04/02 06:55:28;;;;;;;6.20;1.52;;;2.70;99.90;;;;;;5056210;28;20493;-70
2023/04/02 06:57:54;;;;;;;4.82;1.20;;;2.80;99.90;;;;;;5056025;28;20040;-70
2023/04/02 07:00:41;;;;;;;6.72;1.23;;;2.80;99.90;;;;;;5039392;28;20028;-71
2023/04/02 07:03:28;;;;;;;4.45;1.10;;;2.90;99.90;;;;;;5055974;28;20489;-70
2023/04/02 07:05:55;;;;;;;6.70;1.50;;;2.90;99.90;;;;;;5055879;28;20048;-70
2023/04/02 07:08:21;;;;;;;4.05;1.20;;;2.90;99.90;;;;;;5055842;28;20511;-71
2023/04/02 07:10:47;;;;;;;7.47;1.30;;;3.00;99.90;;;;;;5056168;28;20097;-70
2023/04/02 07:13:21;;;;;;;5.70;1.17;;;3.00;99.90;;;;;;5056209;28;20485;-70
2023/04/02 07:15:51;;;;;;;5.30;1.20;;;3.10;99.90;;;;;;5039115;28;20528;-70
2023/04/02 07:18:31;;;;;;;8.05;1.27;;;3.10;99.90;;;;;;5055981;28;20059;-70
2023/04/02 07:20:58;;;;;;;5.70;1.20;;;3.20;99.90;;;;;;5055927;28;20049;-70
2023/04/02 07:23:24;;;;;;;5.10;1.45;;;3.20;99.90;;;;;;5038981;28;20123;-70
2023/04/02 07:25:52;;;;;;;6.30;1.50;;;3.30;99.90;;;;;;5055517;28;20501;-70
2023/04/02 07:28:17;;;;;;;7.05;1.20;;;3.30;99.90;;;;;;5056326;28;20428;-71
2023/04/02 07:30:44;;;;;;;8.95;1.00;;;3.40;99.90;;;;;;5055739;28;20044;-71
2023/04/02 07:33:15;;;;;;;7.72;1.77;;;3.50;99.90;;;;;;5055454;28;20044;-70
2023/04/02 07:35:41;;;;;;;7.00;1.67;;;3.50;99.90;;;;;;5055619;28;20044;-70
2023/04/02 07:38:08;;;;;;;6.32;1.20;;;3.60;99.90;;;;;;5055134;28;20067;-70
2023/04/02 07:40:33;;;;;;;7.05;1.70;;;3.70;99.90;;;;;;5055667;28;20036;-71
2023/04/02 07:42:59;;;;;;;8.75;1.45;;;3.80;99.90;;;;;;5055424;28;20047;-71
2023/04/02 07:45:25;;;;;;;4.63;1.17;;;3.80;99.90;;;;;;5055610;28;20051;-70
2023/04/02 07:47:51;;;;;;;4.70;0.88;;;3.90;99.90;;;;;;5055284;28;20492;-71
2023/04/02 07:50:17;;;;;;;6.43;1.23;;;4.00;99.90;;;;;;5038682;28;20086;-71
2023/04/02 07:52:43;;;;;;;6.38;1.27;;;4.10;99.90;;;;;;5055293;28;20070;-71
2023/04/02 07:55:11;;;;;;;6.55;1.70;;;4.20;99.90;;;;;;5055147;28;20041;-70
2023/04/02 07:57:50;;;;;;;5.28;1.00;;;4.30;99.90;;;;;;5055151;28;20043;-70
2023/04/02 08:00:17;;;;;;;6.40;1.73;;;4.40;99.90;;;;;;5055394;28;20416;-71
2023/04/02 08:02:42;;;;;;;3.45;1.20;;;4.40;99.90;;;;;;5055279;28;20072;-71
2023/04/02 08:05:09;;;;;;;6.32;1.35;;;4.40;99.90;;;;;;5055195;28;20083;-70
2023/04/02 08:07:36;;;;;;;5.30;1.08;;;4.40;99.90;;;;;;5055104;28;20511;-70
2023/04/02 08:10:02;;;;;;;7.13;1.30;;;4.50;99.90;;;;;;5055199;28;20087;-70
2023/04/02 08:12:28;;;;;;;6.55;1.15;;;4.60;99.90;;;;;;5055607;28;20048;-70
2023/04/02 08:14:54;;;;;;;5.65;1.20;;;4.70;99.90;;;;;;5055017;28;20532;-70
2023/04/02 08:17:20;;;;;;;5.25;1.20;;;4.80;99.90;;;;;;5038983;28;20488;-71
2023/04/02 08:19:46;;;;;;;4.15;1.05;;;5.00;99.90;;;;;;5055199;28;20036;-71
2023/04/02 08:22:12;;;;;;;6.28;1.20;;;5.10;99.90;;;;;;5054916;28;20500;-71
2023/04/02 08:24:37;;;;;;;6.18;1.63;;;5.10;99.90;;;;;;5055188;28;20094;-71
2023/04/02 08:27:03;;;;;;;5.20;1.30;;;5.20;99.90;;;;;;5054874;28;20123;-70
2023/04/02 08:29:31;;;;;;;6.28;1.00;;;5.20;99.90;;;;;;5054887;28;20033;-71
2023/04/02 08:32:00;;;;;;;5.85;1.20;;;5.30;99.90;;;;;;5038441;28;20392;-70
2023/04/02 08:34:27;;;;;;;5.82;1.05;;;5.40;99.90;;;;;;5056403;28;20123;-71
2023/04/02 08:36:57;;;;;;;4.60;1.10;;;5.50;99.90;;;;;;5054981;28;20119;-70
2023/04/02 08:39:25;;;;;;;5.38;1.52;;;5.60;99.90;;;;;;5055074;28;20098;-70
2023/04/02 08:42:07;;;;;;;5.75;1.77;;;5.70;99.90;;;;;;5054961;28;20041;-70
2023/04/02 08:44:35;;;;;;;8.88;1.20;;;5.90;99.90;;;;;;5054805;28;20053;-72
2023/04/02 08:47:08;;;;;;;7.72;1.40;;;6.10;99.90;;;;;;5038255;28;20451;-71
2023/04/02 08:49:48;;;;;;;4.47;1.05;;;6.20;99.90;;;;;;5057343;28;20040;-71
2023/04/02 08:52:26;;;;;;;7.75;2.05;;;6.40;99.90;;;;;;5058751;28;20438;-71
2023/04/02 08:54:54;;;;;;;5.32;1.55;;;6.70;99.90;;;;;;5058525;28;20036;-71
2023/04/02 08:57:38;;;;;;;3.58;1.20;;;6.80;99.90;;;;;;5058603;28;20396;-70
2023/04/02 09:00:09;;;;;;;4.88;1.38;;;7.00;99.90;;;;;;5042076;28;20044;-70
2023/04/02 09:02:53;;;;;;;4.10;1.10;;;7.00;99.90;;;;;;5041714;28;20040;-71
2023/04/02 09:05:25;;;;;;;4.97;1.65;;;7.10;99.90;;;;;;5058573;28;20044;-71
2023/04/02 09:07:53;;;;;;;5.95;1.25;;;7.10;99.90;;;;;;5058305;28;20086;-70
2023/04/02 09:10:22;;;;;;;7.47;1.20;;;7.30;99.90;;;;;;5041464;28;20447;-71
2023/04/02 09:12:51;;;;;;;4.43;1.10;;;7.40;99.90;;;;;;5058093;28;20040;-70
2023/04/02 09:15:34;;;;;;;3.35;1.00;;;7.50;99.90;;;;;;5041736;28;20068;-70
2023/04/02 09:18:13;;;;;;;3.42;1.10;;;7.70;99.90;;;;;;5058421;28;20051;-71
2023/04/02 09:20:39;;;;;;;5.68;1.27;;;7.90;99.90;;;;;;5058033;28;20527;-71
2023/04/02 09:23:15;;;;;;;4.93;1.30;;;8.00;99.90;;;;;;5041560;28;20040;-71
2023/04/02 09:25:45;;;;;;;5.53;1.17;;;8.10;99.90;;;;;;5057878;28;20458;-70
2023/04/02 09:28:12;;;;;;;3.72;1.02;;;8.30;99.90;;;;;;5058201;28;20531;-70
2023/04/02 09:31:18;;;;;;;3.83;0.93;;;8.50;99.90;;;;;;5041147;28;20055;-70
2023/04/02 09:33:50;;;;;;;4.75;1.05;;;8.70;99.90;;;;;;5057852;28;20407;-70
2023/04/02 09:36:36;;;;;;;4.72;1.20;;;9.10;99.90;;;;;;5057665;28;20039;-70
2023/04/02 09:39:16;;;;;;;5.43;1.20;;;9.30;99.90;;;;;;5057668;28;20036;-71
2023/04/02 09:41:42;;;;;;;4.78;1.20;;;9.40;98.90;;;;;;5057684;28;20114;-71
2023/04/02 09:44:17;;;;;;;5.68;1.40;;;9.50;98.70;;;;;;5057623;28;20048;-70
2023/04/02 09:46:48;;;;;;;2.92;1.20;;;9.50;98.30;;;;;;5057538;28;20409;-71
2023/04/02 09:49:17;;;;;;;3.97;0.90;;;9.70;97.40;;;;;;5057457;28;20047;-71
2023/04/02 09:51:42;;;;;;;5.47;0.98;;;10.00;96.10;;;;;;5057465;28;20048;-71
2023/04/02 09:54:15;;;;;;;4.35;1.10;;;10.20;95.40;;;;;;5057283;28;20044;-71
2023/04/02 09:56:59;;;;;;;5.05;0.93;;;10.40;93.60;;;;;;5057556;28;20044;-72
2023/04/02 09:59:26;;;;;;;4.20;0.98;;;10.60;93.30;;;;;;5057490;28;20036;-73
2023/04/02 10:01:55;;;;;;;4.38;1.45;;;10.70;93.50;;;;;;5056736;28;20093;-73
2023/04/02 10:04:43;;;;;;;5.88;0.98;;;10.90;93.30;;;;;;5041069;28;20507;-72
2023/04/02 10:07:33;;;;;;;4.43;1.20;;;11.20;92.50;;;;;;5040486;28;20404;-72
2023/04/02 10:10:02;;;;;;;2.97;0.93;;;11.30;92.30;;;;;;5057279;28;20052;-72
2023/04/02 10:12:34;;;;;;;3.92;0.93;;;11.40;92.50;;;;;;5056984;28;20044;-71
2023/04/02 10:15:01;;;;;;;4.10;1.00;;;11.50;92.10;;;;;;5057159;28;20429;-72
2023/04/02 10:17:31;;;;;;;5.18;1.15;;;11.60;91.80;;;;;;5057089;28;20040;-72
2023/04/02 10:20:14;;;;;;;5.53;1.10;;;11.60;91.30;;;;;;5056969;28;20085;-73
2023/04/02 10:22:40;;;;;;;4.45;1.20;;;11.40;90.50;;;;;;5057028;28;20048;-72
2023/04/02 10:25:16;;;;;;;6.97;0.90;;;11.40;90.50;;;;;;5057055;28;20493;-72
2023/04/02 10:27:59;;;;;;;3.95;1.10;;;11.40;89.80;;;;;;5056816;28;20048;-72
2023/04/02 10:30:42;;;;;;;5.60;1.25;;;11.50;89.50;;;;;;5040586;28;20040;-72
2023/04/02 10:33:14;;;;;;;4.50;1.52;;;11.60;88.70;;;;;;5056693;28;20124;-72
2023/04/02 10:36:05;;;;;;;4.18;1.13;;;11.60;88.90;;;;;;5056578;28;20080;-72
2023/04/02 10:38:50;;;;;;;2.72;0.82;;;11.80;87.80;;;;;;5021283;28;20385;-72
2023/04/02 10:41:30;;;;;;;2.88;0.70;;;12.00;86.80;;;;;;5056846;28;20041;-73
2023/04/02 10:44:18;;;;;;;4.35;1.05;;;12.00;87.70;;;;;;5056447;28;20040;-72
2023/04/02 10:47:05;;;;;;;2.88;0.82;;;12.20;86.00;;;;;;5056385;28;20044;-72
2023/04/02 10:49:37;;;;;;;3.75;0.98;;;12.40;84.80;;;;;;5056354;28;20048;-72
2023/04/02 10:52:25;;;;;;;4.53;1.30;;;12.50;82.90;;;;;;5056246;28;20040;-72
2023/04/02 10:54:53;;;;;;;3.03;0.77;;;12.70;83.80;;;;;;5056158;28;20041;-72
2023/04/02 10:57:39;;;;;;;6.25;0.90;;;12.90;83.50;;;;;;5039453;28;20477;-72
2023/04/02 11:00:11;;;;;;;4.13;1.15;;;13.10;81.70;;;;;;5039956;28;20541;-72
2023/04/02 11:03:14;;;;;;;3.60;1.03;;;13.30;82.10;;;;;;5056176;28;20170;-71
2023/04/02 11:05:52;;;;;;;5.00;1.02;;;13.50;80.90;;;;;;5055953;28;20044;-72
2023/04/02 11:08:44;;;;;;;3.42;0.90;;;13.50;79.70;;;;;;5039450;28;20036;-72
2023/04/02 11:11:16;;;;;;;5.32;1.08;;;13.50;80.00;;;;;;5055872;28;20101;-72
2023/04/02 11:14:03;;;;;;;4.78;1.13;;;13.50;79.70;;;;;;5055195;28;20173;-72
2023/04/02 11:16:29;;;;;;;3.35;0.90;;;13.60;77.20;;;;;;5038953;28;20116;-72
2023/04/02 11:19:13;;;;;;;5.60;1.00;;;13.50;79.00;;;;;;5039242;28;20140;-73
2023/04/02 11:21:50;;;;;;;3.83;1.30;;;13.60;77.50;;;;;;5056036;28;20094;-73
2023/04/02 11:24:32;;;;;;;2.70;0.70;;;13.50;78.50;;;;;;5056059;28;20130;-72
2023/04/02 11:27:10;;;;;;;5.30;0.90;;;13.60;76.90;;;;;;5055845;28;20111;-72
2023/04/02 11:29:48;;;;;;;3.28;0.80;;;13.80;76.60;;;;;;5055848;28;20040;-72
2023/04/02 11:32:20;;;;;;;5.70;1.15;;;13.80;76.10;;;;;;5038928;28;20524;-73
2023/04/02 11:34:49;;;;;;;3.55;1.30;;;13.90;75.40;;;;;;5055565;28;20040;-72
2023/04/02 11:37:44;;;;;;;5.15;0.93;;;14.00;76.00;;;;;;5055402;28;20037;-72
2023/04/02 11:40:09;;;;;;;3.05;0.77;;;14.10;74.30;;;;;;5055756;28;20045;-72
2023/04/02 11:42:47;;;;;;;3.60;1.20;;;14.20;75.80;;;;;;5055750;28;20043;-72
2023/04/02 11:45:27;;;;;;;2.88;0.80;;;14.50;76.10;;;;;;5056571;28;20107;-72
2023/04/02 11:48:07;;;;;;;2.90;0.90;;;14.70;73.70;;;;;;5039075;28;20040;-72
2023/04/02 11:50:43;;;;;;;5.35;1.23;;;14.70;72.60;;;;;;5055593;28;20044;-73
2023/04/02 11:53:09;;;;;;;4.28;0.90;;;14.70;71.90;;;;;;5055269;28;20049;-73
2023/04/02 11:55:36;;;;;;;3.70;0.90;;;14.50;72.10;;;;;;5055069;28;20093;-72
2023/04/02 11:58:39;;;;;;;5.07;1.00;;;14.60;72.30;;;;;;5055535;28;20036;-72
2023/04/02 12:01:07;;;;;;;2.70;1.13;;;14.50;69.80;;;;;;5055460;28;20037;-72
2023/04/02 12:03:45;;;;;;;4.88;0.98;;;14.50;72.40;;;;;;5038375;28;20587;-72
2023/04/02 12:06:18;;;;;;;4.32;1.25;;;14.70;70.00;;;;;;5055056;28;20041;-72
2023/04/02 12:09:25;;;;;;;4.03;0.90;;;14.70;72.10;;;;;;5055311;28;20040;-72
2023/04/02 12:11:54;;;;;;;4.07;1.00;;;14.90;70.90;;;;;;5038446;28;20037;-72
2023/04/02 12:14:44;;;;;;;5.78;1.20;;;15.00;71.20;;;;;;5055062;28;20048;-72
2023/04/02 12:17:27;;;;;;;5.88;1.20;;;15.10;70.90;;;;;;5054873;28;20040;-72
2023/04/02 12:20:19;;;;;;;3.97;1.00;;;14.90;68.90;;;;;;5055263;28;20123;-72
2023/04/02 12:22:54;;;;;;;4.07;1.08;;;14.90;70.20;;;;;;5055020;28;20044;-72
2023/04/02 12:25:20;;;;;;;5.43;0.73;;;15.00;68.30;;;;;;5059048;28;20059;-72
2023/04/02 12:27:47;;;;;;;4.15;0.90;;;15.10;69.60;;;;;;5058945;28;20182;-72
2023/04/02 12:30:21;;;;;;;4.47;1.00;;;14.90;68.60;;;;;;5058933;28;20040;-72
2023/04/02 12:32:47;;;;;;;3.58;0.90;;;14.60;67.60;;;;;;5059000;28;20381;-72
2023/04/02 12:35:32;;;;;;;4.82;1.15;;;14.60;68.50;;;;;;5059135;28;20048;-72
2023/04/02 12:37:58;;;;;;;2.90;0.90;;;14.80;68.30;;;;;;5058813;28;20047;-72
2023/04/02 12:40:25;;;;;;;4.05;0.57;;;15.00;68.80;;;;;;5059030;28;20032;-72
2023/04/02 12:42:51;;;;;;;4.88;1.10;;;15.30;68.20;;;;;;5058699;28;20048;-72
2023/04/02 12:45:26;;;;;;;5.20;1.05;;;15.40;67.20;;;;;;5058906;28;20040;-72
2023/04/02 12:47:52;;;;;;;3.70;0.60;;;15.40;65.40;;;;;;5058757;28;20040;-72
2023/04/02 12:50:20;;;;;;;2.75;0.70;;;15.50;64.70;;;;;;5058607;28;20040;-73
2023/04/02 12:52:49;;;;;;;2.67;0.85;;;15.50;63.90;;;;;;5058486;28;20032;-73
2023/04/02 12:55:33;;;;;;;2.88;0.73;;;15.70;63.60;;;;;;5041957;28;20071;-72
2023/04/02 12:57:59;;;;;;;3.90;1.10;;;15.90;65.10;;;;;;5058565;28;20119;-73
2023/04/02 13:00:25;;;;;;;3.65;0.77;;;16.10;65.50;;;;;;5058445;28;20079;-73
2023/04/02 13:02:58;;;;;;;3.03;1.00;;;16.20;64.60;;;;;;5058356;28;20131;-72
2023/04/02 13:05:41;;;;;;;3.33;0.75;;;16.20;63.10;;;;;;5058352;28;20043;-73
2023/04/02 13:08:32;;;;;;;2.15;0.80;;;16.20;62.50;;;;;;5041981;28;20094;-73
2023/04/02 13:11:02;;;;;;;3.30;0.65;;;16.40;61.90;;;;;;5058279;28;20102;-73
2023/04/02 13:13:43;;;;;;;4.57;1.52;;;16.40;60.70;;;;;;5058117;28;20125;-73
2023/04/02 13:16:14;;;;;;;4.60;1.00;;;16.40;60.10;;;;;;5057936;28;20043;-72
2023/04/02 13:18:41;;;;;;;4.68;1.17;;;16.50;60.80;;;;;;5058104;28;20501;-73
2023/04/02 13:21:13;;;;;;;2.70;1.00;;;16.50;61.30;;;;;;5058330;28;20497;-73
2023/04/02 13:23:39;;;;;;;4.22;1.05;;;16.50;60.00;;;;;;5058000;28;20044;-72
2023/04/02 13:26:19;;;;;;;3.58;1.10;;;16.30;60.70;;;;;;5057865;28;20049;-72
2023/04/02 13:29:23;;;;;;;2.95;0.73;;;16.10;61.10;;;;;;5057918;28;20051;-73
2023/04/02 13:31:50;;;;;;;3.78;0.93;;;16.00;58.50;;;;;;5058118;28;20037;-73
2023/04/02 13:34:16;;;;;;;2.85;0.82;;;15.90;60.80;;;;;;5057641;28;20127;-72
2023/04/02 13:36:42;;;;;;;3.17;0.70;;;16.00;61.30;;;;;;5056801;28;20047;-73
2023/04/02 13:39:08;;;;;;;3.95;0.80;;;16.10;60.50;;;;;;5041106;28;20044;-72